sensor_id;sensor_type;location;lat;lon;timestamp;P1;durP1;ratioP1;P2;durP2;ratioP2
21661;SDS011;10992;48.170;8.596;2022-10-31T00:01:23;7.18;;;3.33;;
21661;SDS011;10992;48.170;8.596;2022-10-31T00:03:52;6.00;;;3.20;;
21661;SDS011;10992;48.170;8.596;2022-10-31T00:06:19;8.90;;;3.30;;
21661;SDS011;10992;48.170;8.596;2022-10-31T00:08:47;6.50;;;3.47;;
21661;SDS011;10992;48.170;8.596;2022-10-31T00:11:18;5.57;;;3.10;;
21661;SDS011;10992;48.170;8.596;2022-10-31T00:13:46;12.68;;;3.00;;
21661;SDS011;10992;48.170;8.596;2022-10-31T00:16:16;10.00;;;3.20;;
21661;SDS011;10992;48.170;8.596;2022-10-31T00:18:47;6.50;;;3.38;;
21661;SDS011;10992;48.170;8.596;2022-10-31T00:21:15;8.65;;;3.40;;
21661;SDS011;10992;48.170;8.596;2022-10-31T00:23:42;10.65;;;3.80;;
21661;SDS011;10992;48.170;8.596;2022-10-31T00:26:09;9.60;;;3.47;;
21661;SDS011;10992;48.170;8.596;2022-10-31T00:28:36;7.05;;;3.22;;
21661;SDS011;10992;48.170;8.596;2022-10-31T00:31:04;11.02;;;3.45;;
21661;SDS011;10992;48.170;8.596;2022-10-31T00:33:34;6.97;;;3.10;;
21661;SDS011;10992;48.170;8.596;2022-10-31T00:36:03;5.18;;;2.40;;
21661;SDS011;10992;48.170;8.596;2022-10-31T00:38:31;5.32;;;2.70;;
21661;SDS011;10992;48.170;8.596;2022-10-31T00:40:59;9.60;;;2.85;;
21661;SDS011;10992;48.170;8.596;2022-10-31T00:43:25;8.00;;;3.10;;
21661;SDS011;10992;48.170;8.596;2022-10-31T00:45:53;4.82;;;2.55;;
21661;SDS011;10992;48.170;8.596;2022-10-31T00:48:23;8.02;;;3.30;;
21661;SDS011;10992;48.170;8.596;2022-10-31T00:50:51;7.80;;;3.22;;
21661;SDS011;10992;48.170;8.596;2022-10-31T00:53:18;4.80;;;2.58;;
21661;SDS011;10992;48.170;8.596;2022-10-31T00:55:45;13.65;;;3.42;;
21661;SDS011;10992;48.170;8.596;2022-10-31T00:58:13;8.38;;;2.72;;
21661;SDS011;10992;48.170;8.596;2022-10-31T01:00:46;6.00;;;3.00;;
21661;SDS011;10992;48.170;8.596;2022-10-31T01:03:27;7.05;;;3.13;;
21661;SDS011;10992;48.170;8.596;2022-10-31T01:05:59;6.03;;;2.80;;
21661;SDS011;10992;48.170;8.596;2022-10-31T01:08:26;9.40;;;2.80;;
21661;SDS011;10992;48.170;8.596;2022-10-31T01:13:51;6.70;;;2.80;;
21661;SDS011;10992;48.170;8.596;2022-10-31T01:16:20;6.03;;;2.70;;
21661;SDS011;10992;48.170;8.596;2022-10-31T01:18:50;8.25;;;3.25;;
21661;SDS011;10992;48.170;8.596;2022-10-31T01:21:21;11.88;;;3.13;;
21661;SDS011;10992;48.170;8.596;2022-10-31T01:23:50;5.55;;;2.40;;
21661;SDS011;10992;48.170;8.596;2022-10-31T01:26:21;9.95;;;3.13;;
21661;SDS011;10992;48.170;8.596;2022-10-31T01:28:50;7.07;;;2.65;;
21661;SDS011;10992;48.170;8.596;2022-10-31T01:31:22;8.00;;;2.97;;
21661;SDS011;10992;48.170;8.596;2022-10-31T01:33:51;7.55;;;2.72;;
21661;SDS011;10992;48.170;8.596;2022-10-31T01:36:20;5.80;;;3.17;;
21661;SDS011;10992;48.170;8.596;2022-10-31T01:38:55;7.82;;;3.10;;
21661;SDS011;10992;48.170;8.596;2022-10-31T01:41:28;7.85;;;3.22;;
21661;SDS011;10992;48.170;8.596;2022-10-31T01:46:35;6.85;;;2.85;;
21661;SDS011;10992;48.170;8.596;2022-10-31T01:49:05;6.03;;;3.13;;
21661;SDS011;10992;48.170;8.596;2022-10-31T01:51:38;9.80;;;3.53;;
21661;SDS011;10992;48.170;8.596;2022-10-31T01:54:12;9.60;;;3.40;;
21661;SDS011;10992;48.170;8.596;2022-10-31T01:56:42;4.85;;;2.67;;
21661;SDS011;10992;48.170;8.596;2022-10-31T01:59:13;4.72;;;2.90;;
21661;SDS011;10992;48.170;8.596;2022-10-31T02:01:46;7.82;;;3.00;;
21661;SDS011;10992;48.170;8.596;2022-10-31T02:04:14;8.88;;;3.00;;
21661;SDS011;10992;48.170;8.596;2022-10-31T02:06:46;12.63;;;3.15;;
21661;SDS011;10992;48.170;8.596;2022-10-31T02:09:17;8.05;;;4.88;;
21661;SDS011;10992;48.170;8.596;2022-10-31T02:11:51;8.25;;;3.80;;
21661;SDS011;10992;48.170;8.596;2022-10-31T02:14:24;8.52;;;3.35;;
21661;SDS011;10992;48.170;8.596;2022-10-31T02:16:53;9.60;;;3.33;;
21661;SDS011;10992;48.170;8.596;2022-10-31T02:25:34;7.32;;;3.65;;
21661;SDS011;10992;48.170;8.596;2022-10-31T02:33:44;6.75;;;3.40;;
21661;SDS011;10992;48.170;8.596;2022-10-31T02:47:12;7.35;;;3.80;;
21661;SDS011;10992;48.170;8.596;2022-10-31T02:52:17;6.43;;;3.83;;
21661;SDS011;10992;48.170;8.596;2022-10-31T02:54:45;8.60;;;3.88;;
21661;SDS011;10992;48.170;8.596;2022-10-31T02:57:14;12.60;;;3.80;;
21661;SDS011;10992;48.170;8.596;2022-10-31T02:59:46;8.55;;;4.18;;
21661;SDS011;10992;48.170;8.596;2022-10-31T03:15:50;5.18;;;3.30;;
21661;SDS011;10992;48.170;8.596;2022-10-31T03:18:25;8.30;;;3.65;;
21661;SDS011;10992;48.170;8.596;2022-10-31T03:21:01;8.65;;;3.95;;
21661;SDS011;10992;48.170;8.596;2022-10-31T03:23:38;6.05;;;3.70;;
21661;SDS011;10992;48.170;8.596;2022-10-31T03:26:06;5.38;;;3.50;;
21661;SDS011;10992;48.170;8.596;2022-10-31T03:28:38;8.10;;;3.60;;
21661;SDS011;10992;48.170;8.596;2022-10-31T03:31:12;9.90;;;3.70;;
21661;SDS011;10992;48.170;8.596;2022-10-31T03:33:45;11.32;;;3.90;;
21661;SDS011;10992;48.170;8.596;2022-10-31T03:36:14;8.00;;;4.20;;
21661;SDS011;10992;48.170;8.596;2022-10-31T03:38:43;7.85;;;3.80;;
21661;SDS011;10992;48.170;8.596;2022-10-31T03:41:17;9.52;;;4.00;;
21661;SDS011;10992;48.170;8.596;2022-10-31T03:43:52;7.00;;;3.88;;
21661;SDS011;10992;48.170;8.596;2022-10-31T03:46:24;9.60;;;3.80;;
21661;SDS011;10992;48.170;8.596;2022-10-31T03:48:54;12.02;;;4.20;;
21661;SDS011;10992;48.170;8.596;2022-10-31T03:56:27;9.38;;;3.90;;
21661;SDS011;10992;48.170;8.596;2022-10-31T04:01:53;9.43;;;3.45;;
21661;SDS011;10992;48.170;8.596;2022-10-31T04:04:26;11.35;;;3.50;;
21661;SDS011;10992;48.170;8.596;2022-10-31T04:06:55;7.47;;;4.00;;
21661;SDS011;10992;48.170;8.596;2022-10-31T04:09:25;6.70;;;3.20;;
21661;SDS011;10992;48.170;8.596;2022-10-31T04:11:54;7.22;;;3.58;;
21661;SDS011;10992;48.170;8.596;2022-10-31T04:14:45;9.45;;;3.63;;
21661;SDS011;10992;48.170;8.596;2022-10-31T04:17:15;8.88;;;3.60;;
21661;SDS011;10992;48.170;8.596;2022-10-31T04:19:45;7.47;;;3.28;;
21661;SDS011;10992;48.170;8.596;2022-10-31T04:22:12;9.05;;;3.30;;
21661;SDS011;10992;48.170;8.596;2022-10-31T04:24:40;7.15;;;3.53;;
21661;SDS011;10992;48.170;8.596;2022-10-31T04:27:09;6.65;;;3.00;;
21661;SDS011;10992;48.170;8.596;2022-10-31T04:29:37;7.45;;;3.50;;
21661;SDS011;10992;48.170;8.596;2022-10-31T04:32:04;6.97;;;3.83;;
21661;SDS011;10992;48.170;8.596;2022-10-31T04:34:31;7.95;;;4.07;;
21661;SDS011;10992;48.170;8.596;2022-10-31T04:36:58;5.38;;;3.20;;
21661;SDS011;10992;48.170;8.596;2022-10-31T04:39:25;8.57;;;3.13;;
21661;SDS011;10992;48.170;8.596;2022-10-31T04:42:30;7.28;;;3.65;;
21661;SDS011;10992;48.170;8.596;2022-10-31T04:45:00;8.30;;;3.20;;
21661;SDS011;10992;48.170;8.596;2022-10-31T04:47:30;6.15;;;2.97;;
21661;SDS011;10992;48.170;8.596;2022-10-31T04:50:01;6.45;;;3.20;;
21661;SDS011;10992;48.170;8.596;2022-10-31T04:52:28;9.88;;;3.78;;
21661;SDS011;10992;48.170;8.596;2022-10-31T04:54:56;6.53;;;3.67;;
21661;SDS011;10992;48.170;8.596;2022-10-31T04:57:42;8.90;;;4.07;;
21661;SDS011;10992;48.170;8.596;2022-10-31T05:00:12;7.18;;;4.00;;
21661;SDS011;10992;48.170;8.596;2022-10-31T05:02:44;5.45;;;3.90;;
21661;SDS011;10992;48.170;8.596;2022-10-31T05:05:16;8.45;;;4.90;;
21661;SDS011;10992;48.170;8.596;2022-10-31T05:07:45;9.20;;;4.80;;
21661;SDS011;10992;48.170;8.596;2022-10-31T05:10:17;8.05;;;4.82;;
21661;SDS011;10992;48.170;8.596;2022-10-31T05:12:49;9.07;;;5.07;;
21661;SDS011;10992;48.170;8.596;2022-10-31T05:15:36;9.35;;;4.55;;
21661;SDS011;10992;48.170;8.596;2022-10-31T05:18:23;6.93;;;3.83;;
21661;SDS011;10992;48.170;8.596;2022-10-31T05:21:08;12.60;;;4.18;;
21661;SDS011;10992;48.170;8.596;2022-10-31T05:23:49;6.32;;;3.58;;
21661;SDS011;10992;48.170;8.596;2022-10-31T05:26:16;7.78;;;4.13;;
21661;SDS011;10992;48.170;8.596;2022-10-31T05:28:43;7.28;;;3.97;;
21661;SDS011;10992;48.170;8.596;2022-10-31T05:31:10;10.20;;;3.92;;
21661;SDS011;10992;48.170;8.596;2022-10-31T05:33:37;9.48;;;3.80;;
21661;SDS011;10992;48.170;8.596;2022-10-31T05:36:23;8.75;;;4.00;;
21661;SDS011;10992;48.170;8.596;2022-10-31T05:38:57;6.40;;;3.85;;
21661;SDS011;10992;48.170;8.596;2022-10-31T05:41:28;8.27;;;5.05;;
21661;SDS011;10992;48.170;8.596;2022-10-31T05:44:11;10.15;;;5.80;;
21661;SDS011;10992;48.170;8.596;2022-10-31T05:46:55;8.98;;;4.38;;
21661;SDS011;10992;48.170;8.596;2022-10-31T05:49:40;6.32;;;3.80;;
21661;SDS011;10992;48.170;8.596;2022-10-31T05:52:26;6.60;;;4.10;;
21661;SDS011;10992;48.170;8.596;2022-10-31T05:55:00;15.60;;;5.85;;
21661;SDS011;10992;48.170;8.596;2022-10-31T05:57:28;9.75;;;5.55;;
21661;SDS011;10992;48.170;8.596;2022-10-31T05:59:55;6.80;;;4.63;;
21661;SDS011;10992;48.170;8.596;2022-10-31T06:02:23;7.80;;;4.20;;
21661;SDS011;10992;48.170;8.596;2022-10-31T06:05:25;4.95;;;3.15;;
21661;SDS011;10992;48.170;8.596;2022-10-31T06:07:53;7.55;;;3.25;;
21661;SDS011;10992;48.170;8.596;2022-10-31T06:10:22;9.93;;;3.40;;
21661;SDS011;10992;48.170;8.596;2022-10-31T06:12:52;7.03;;;3.03;;
21661;SDS011;10992;48.170;8.596;2022-10-31T06:15:27;6.03;;;3.10;;
21661;SDS011;10992;48.170;8.596;2022-10-31T06:17:59;6.57;;;2.83;;
21661;SDS011;10992;48.170;8.596;2022-10-31T06:20:41;7.00;;;2.67;;
21661;SDS011;10992;48.170;8.596;2022-10-31T06:23:08;9.13;;;3.75;;
21661;SDS011;10992;48.170;8.596;2022-10-31T06:25:35;4.95;;;3.47;;
21661;SDS011;10992;48.170;8.596;2022-10-31T06:28:03;8.68;;;4.13;;
21661;SDS011;10992;48.170;8.596;2022-10-31T06:30:50;7.63;;;3.20;;
21661;SDS011;10992;48.170;8.596;2022-10-31T06:33:17;6.40;;;3.15;;
21661;SDS011;10992;48.170;8.596;2022-10-31T06:35:54;6.47;;;3.92;;
21661;SDS011;10992;48.170;8.596;2022-10-31T06:38:22;6.80;;;3.40;;
21661;SDS011;10992;48.170;8.596;2022-10-31T06:40:48;10.60;;;3.30;;
21661;SDS011;10992;48.170;8.596;2022-10-31T06:43:24;8.18;;;2.80;;
21661;SDS011;10992;48.170;8.596;2022-10-31T06:46:15;6.55;;;3.10;;
21661;SDS011;10992;48.170;8.596;2022-10-31T06:48:56;6.78;;;3.55;;
21661;SDS011;10992;48.170;8.596;2022-10-31T06:51:40;12.95;;;4.25;;
21661;SDS011;10992;48.170;8.596;2022-10-31T06:54:07;7.55;;;3.65;;
21661;SDS011;10992;48.170;8.596;2022-10-31T06:56:34;8.52;;;3.58;;
21661;SDS011;10992;48.170;8.596;2022-10-31T06:59:02;10.82;;;3.42;;
21661;SDS011;10992;48.170;8.596;2022-10-31T07:01:49;8.48;;;3.45;;
21661;SDS011;10992;48.170;8.596;2022-10-31T07:04:18;6.05;;;2.97;;
21661;SDS011;10992;48.170;8.596;2022-10-31T07:06:46;4.85;;;2.65;;
21661;SDS011;10992;48.170;8.596;2022-10-31T07:09:17;10.00;;;2.95;;
21661;SDS011;10992;48.170;8.596;2022-10-31T07:11:46;5.20;;;3.08;;
21661;SDS011;10992;48.170;8.596;2022-10-31T07:14:13;9.65;;;2.92;;
21661;SDS011;10992;48.170;8.596;2022-10-31T07:16:40;8.05;;;2.30;;
21661;SDS011;10992;48.170;8.596;2022-10-31T07:19:10;6.53;;;3.05;;
21661;SDS011;10992;48.170;8.596;2022-10-31T07:21:37;5.18;;;3.05;;
21661;SDS011;10992;48.170;8.596;2022-10-31T07:24:05;6.53;;;2.67;;
21661;SDS011;10992;48.170;8.596;2022-10-31T07:26:41;5.80;;;2.42;;
21661;SDS011;10992;48.170;8.596;2022-10-31T07:29:09;9.18;;;2.47;;
21661;SDS011;10992;48.170;8.596;2022-10-31T07:31:36;3.67;;;1.95;;
21661;SDS011;10992;48.170;8.596;2022-10-31T07:34:10;9.35;;;2.58;;
21661;SDS011;10992;48.170;8.596;2022-10-31T07:36:56;6.13;;;2.75;;
21661;SDS011;10992;48.170;8.596;2022-10-31T07:39:23;11.57;;;2.72;;
21661;SDS011;10992;48.170;8.596;2022-10-31T07:41:50;6.35;;;2.40;;
21661;SDS011;10992;48.170;8.596;2022-10-31T07:44:18;8.88;;;2.53;;
21661;SDS011;10992;48.170;8.596;2022-10-31T07:47:03;6.03;;;2.28;;
21661;SDS011;10992;48.170;8.596;2022-10-31T07:49:49;8.73;;;2.58;;
21661;SDS011;10992;48.170;8.596;2022-10-31T07:52:35;8.00;;;2.95;;
21661;SDS011;10992;48.170;8.596;2022-10-31T07:55:20;5.25;;;2.40;;
21661;SDS011;10992;48.170;8.596;2022-10-31T07:57:54;4.78;;;2.60;;
21661;SDS011;10992;48.170;8.596;2022-10-31T08:00:23;9.20;;;2.75;;
21661;SDS011;10992;48.170;8.596;2022-10-31T08:03:23;8.13;;;2.90;;
21661;SDS011;10992;48.170;8.596;2022-10-31T08:06:02;10.60;;;2.97;;
21661;SDS011;10992;48.170;8.596;2022-10-31T08:08:49;6.07;;;2.70;;
21661;SDS011;10992;48.170;8.596;2022-10-31T08:11:17;7.93;;;2.85;;
21661;SDS011;10992;48.170;8.596;2022-10-31T08:13:46;7.18;;;3.40;;
21661;SDS011;10992;48.170;8.596;2022-10-31T08:16:14;13.25;;;4.57;;
21661;SDS011;10992;48.170;8.596;2022-10-31T08:18:52;9.27;;;3.03;;
21661;SDS011;10992;48.170;8.596;2022-10-31T08:21:22;9.55;;;3.00;;
21661;SDS011;10992;48.170;8.596;2022-10-31T08:23:49;11.10;;;3.00;;
21661;SDS011;10992;48.170;8.596;2022-10-31T08:26:19;5.43;;;2.55;;
21661;SDS011;10992;48.170;8.596;2022-10-31T08:28:47;5.40;;;2.80;;
21661;SDS011;10992;48.170;8.596;2022-10-31T08:31:18;7.72;;;2.50;;
21661;SDS011;10992;48.170;8.596;2022-10-31T08:33:45;8.02;;;2.78;;
21661;SDS011;10992;48.170;8.596;2022-10-31T08:36:33;9.40;;;2.97;;
21661;SDS011;10992;48.170;8.596;2022-10-31T08:39:13;7.22;;;2.85;;
21661;SDS011;10992;48.170;8.596;2022-10-31T08:41:40;6.22;;;2.72;;
21661;SDS011;10992;48.170;8.596;2022-10-31T08:44:10;5.00;;;2.20;;
21661;SDS011;10992;48.170;8.596;2022-10-31T08:46:38;7.30;;;2.15;;
21661;SDS011;10992;48.170;8.596;2022-10-31T08:49:05;8.10;;;2.63;;
21661;SDS011;10992;48.170;8.596;2022-10-31T08:51:32;6.28;;;2.90;;
21661;SDS011;10992;48.170;8.596;2022-10-31T08:53:59;3.90;;;2.20;;
21661;SDS011;10992;48.170;8.596;2022-10-31T08:56:32;8.73;;;2.55;;
21661;SDS011;10992;48.170;8.596;2022-10-31T08:59:02;9.15;;;2.83;;
21661;SDS011;10992;48.170;8.596;2022-10-31T09:01:58;5.18;;;2.80;;
21661;SDS011;10992;48.170;8.596;2022-10-31T09:04:28;4.57;;;2.45;;
21661;SDS011;10992;48.170;8.596;2022-10-31T09:06:56;8.45;;;2.92;;
21661;SDS011;10992;48.170;8.596;2022-10-31T09:09:43;9.18;;;3.05;;
21661;SDS011;10992;48.170;8.596;2022-10-31T09:12:10;6.28;;;2.78;;
21661;SDS011;10992;48.170;8.596;2022-10-31T09:14:55;8.13;;;3.10;;
21661;SDS011;10992;48.170;8.596;2022-10-31T09:17:27;11.55;;;3.28;;
21661;SDS011;10992;48.170;8.596;2022-10-31T09:20:15;9.35;;;2.65;;
21661;SDS011;10992;48.170;8.596;2022-10-31T09:22:43;4.32;;;2.35;;
21661;SDS011;10992;48.170;8.596;2022-10-31T09:25:10;9.23;;;2.53;;
21661;SDS011;10992;48.170;8.596;2022-10-31T09:27:38;6.00;;;2.53;;
21661;SDS011;10992;48.170;8.596;2022-10-31T09:30:06;6.95;;;2.50;;
21661;SDS011;10992;48.170;8.596;2022-10-31T09:32:33;3.83;;;2.30;;
21661;SDS011;10992;48.170;8.596;2022-10-31T09:35:04;5.80;;;2.40;;
21661;SDS011;10992;48.170;8.596;2022-10-31T09:37:31;6.55;;;2.50;;
21661;SDS011;10992;48.170;8.596;2022-10-31T09:39:59;7.95;;;2.60;;
21661;SDS011;10992;48.170;8.596;2022-10-31T09:42:54;10.07;;;2.63;;
21661;SDS011;10992;48.170;8.596;2022-10-31T09:51:18;4.40;;;2.70;;
21661;SDS011;10992;48.170;8.596;2022-10-31T09:54:08;5.57;;;2.38;;
21661;SDS011;10992;48.170;8.596;2022-10-31T09:56:46;7.65;;;3.50;;
21661;SDS011;10992;48.170;8.596;2022-10-31T09:59:20;7.97;;;2.50;;
21661;SDS011;10992;48.170;8.596;2022-10-31T10:01:55;7.30;;;3.45;;
21661;SDS011;10992;48.170;8.596;2022-10-31T10:04:32;10.52;;;2.60;;
21661;SDS011;10992;48.170;8.596;2022-10-31T10:07:25;11.25;;;2.75;;
21661;SDS011;10992;48.170;8.596;2022-10-31T10:10:20;9.05;;;2.55;;
21661;SDS011;10992;48.170;8.596;2022-10-31T10:21:39;9.02;;;2.35;;
21661;SDS011;10992;48.170;8.596;2022-10-31T10:24:18;5.35;;;2.67;;
21661;SDS011;10992;48.170;8.596;2022-10-31T10:29:37;8.15;;;2.67;;
21661;SDS011;10992;48.170;8.596;2022-10-31T10:32:17;9.68;;;3.03;;
21661;SDS011;10992;48.170;8.596;2022-10-31T10:34:53;8.70;;;2.58;;
21661;SDS011;10992;48.170;8.596;2022-10-31T10:37:43;12.82;;;2.75;;
21661;SDS011;10992;48.170;8.596;2022-10-31T10:40:14;7.55;;;2.80;;
21661;SDS011;10992;48.170;8.596;2022-10-31T10:42:44;6.13;;;2.33;;
21661;SDS011;10992;48.170;8.596;2022-10-31T10:45:49;6.15;;;3.28;;
21661;SDS011;10992;48.170;8.596;2022-10-31T10:51:20;10.77;;;3.33;;
21661;SDS011;10992;48.170;8.596;2022-10-31T10:57:11;5.53;;;2.67;;
21661;SDS011;10992;48.170;8.596;2022-10-31T10:59:39;6.57;;;3.13;;
21661;SDS011;10992;48.170;8.596;2022-10-31T11:02:16;6.03;;;2.60;;
21661;SDS011;10992;48.170;8.596;2022-10-31T11:04:47;11.27;;;3.35;;
21661;SDS011;10992;48.170;8.596;2022-10-31T11:07:18;9.90;;;3.72;;
21661;SDS011;10992;48.170;8.596;2022-10-31T11:09:45;9.50;;;2.85;;
21661;SDS011;10992;48.170;8.596;2022-10-31T11:12:24;6.80;;;2.30;;
21661;SDS011;10992;48.170;8.596;2022-10-31T11:15:02;7.88;;;2.78;;
21661;SDS011;10992;48.170;8.596;2022-10-31T11:17:36;9.85;;;3.45;;
21661;SDS011;10992;48.170;8.596;2022-10-31T11:22:44;4.18;;;2.60;;
21661;SDS011;10992;48.170;8.596;2022-10-31T11:27:46;6.63;;;3.03;;
21661;SDS011;10992;48.170;8.596;2022-10-31T11:30:13;8.52;;;3.35;;
21661;SDS011;10992;48.170;8.596;2022-10-31T11:32:42;5.32;;;2.78;;
21661;SDS011;10992;48.170;8.596;2022-10-31T11:35:19;7.93;;;3.03;;
21661;SDS011;10992;48.170;8.596;2022-10-31T11:37:48;9.40;;;2.53;;
21661;SDS011;10992;48.170;8.596;2022-10-31T11:40:18;7.20;;;2.70;;
21661;SDS011;10992;48.170;8.596;2022-10-31T11:42:47;6.55;;;2.28;;
21661;SDS011;10992;48.170;8.596;2022-10-31T11:45:27;6.07;;;2.22;;
21661;SDS011;10992;48.170;8.596;2022-10-31T11:48:00;10.02;;;2.60;;
21661;SDS011;10992;48.170;8.596;2022-10-31T11:50:40;5.05;;;2.42;;
21661;SDS011;10992;48.170;8.596;2022-10-31T11:53:13;6.20;;;2.88;;
21661;SDS011;10992;48.170;8.596;2022-10-31T11:55:43;11.57;;;3.10;;
21661;SDS011;10992;48.170;8.596;2022-10-31T11:58:22;6.95;;;3.30;;
21661;SDS011;10992;48.170;8.596;2022-10-31T12:00:55;6.10;;;3.25;;
21661;SDS011;10992;48.170;8.596;2022-10-31T12:06:00;9.60;;;3.30;;
21661;SDS011;10992;48.170;8.596;2022-10-31T12:08:35;9.18;;;3.33;;
21661;SDS011;10992;48.170;8.596;2022-10-31T12:11:11;13.15;;;3.35;;
21661;SDS011;10992;48.170;8.596;2022-10-31T12:16:31;11.32;;;3.63;;
21661;SDS011;10992;48.170;8.596;2022-10-31T12:22:20;9.80;;;3.13;;
21661;SDS011;10992;48.170;8.596;2022-10-31T12:30:28;10.00;;;2.88;;
21661;SDS011;10992;48.170;8.596;2022-10-31T12:33:32;6.95;;;3.10;;
21661;SDS011;10992;48.170;8.596;2022-10-31T12:38:48;6.10;;;3.50;;
21661;SDS011;10992;48.170;8.596;2022-10-31T12:45:04;6.70;;;2.72;;
21661;SDS011;10992;48.170;8.596;2022-10-31T12:47:28;6.60;;;2.53;;
21661;SDS011;10992;48.170;8.596;2022-10-31T12:53:06;8.80;;;2.80;;
21661;SDS011;10992;48.170;8.596;2022-10-31T12:58:28;9.75;;;3.08;;
21661;SDS011;10992;48.170;8.596;2022-10-31T13:01:09;9.77;;;2.65;;
21661;SDS011;10992;48.170;8.596;2022-10-31T13:03:58;4.88;;;2.50;;
21661;SDS011;10992;48.170;8.596;2022-10-31T13:06:35;7.53;;;3.03;;
21661;SDS011;10992;48.170;8.596;2022-10-31T13:09:11;9.90;;;2.47;;
21661;SDS011;10992;48.170;8.596;2022-10-31T13:11:44;7.95;;;2.95;;
21661;SDS011;10992;48.170;8.596;2022-10-31T13:14:49;6.90;;;2.97;;
21661;SDS011;10992;48.170;8.596;2022-10-31T13:17:18;5.85;;;2.80;;
21661;SDS011;10992;48.170;8.596;2022-10-31T13:20:02;6.53;;;2.67;;
21661;SDS011;10992;48.170;8.596;2022-10-31T13:22:42;8.05;;;2.50;;
21661;SDS011;10992;48.170;8.596;2022-10-31T13:25:36;6.80;;;2.33;;
21661;SDS011;10992;48.170;8.596;2022-10-31T13:30:50;5.75;;;2.40;;
21661;SDS011;10992;48.170;8.596;2022-10-31T13:33:26;10.23;;;2.72;;
21661;SDS011;10992;48.170;8.596;2022-10-31T13:38:40;6.18;;;2.08;;
21661;SDS011;10992;48.170;8.596;2022-10-31T13:49:00;6.88;;;2.13;;
21661;SDS011;10992;48.170;8.596;2022-10-31T13:51:28;5.85;;;2.13;;
21661;SDS011;10992;48.170;8.596;2022-10-31T13:54:01;6.55;;;2.05;;
21661;SDS011;10992;48.170;8.596;2022-10-31T13:56:48;7.20;;;2.05;;
21661;SDS011;10992;48.170;8.596;2022-10-31T13:59:17;6.70;;;2.08;;
21661;SDS011;10992;48.170;8.596;2022-10-31T14:04:25;6.38;;;1.90;;
21661;SDS011;10992;48.170;8.596;2022-10-31T14:06:57;6.22;;;1.60;;
21661;SDS011;10992;48.170;8.596;2022-10-31T14:09:29;4.93;;;1.88;;
21661;SDS011;10992;48.170;8.596;2022-10-31T14:11:59;3.92;;;2.03;;
21661;SDS011;10992;48.170;8.596;2022-10-31T14:14:30;7.28;;;2.22;;
21661;SDS011;10992;48.170;8.596;2022-10-31T14:17:01;4.32;;;1.40;;
21661;SDS011;10992;48.170;8.596;2022-10-31T14:19:29;7.60;;;2.30;;
21661;SDS011;10992;48.170;8.596;2022-10-31T14:21:56;7.45;;;1.90;;
21661;SDS011;10992;48.170;8.596;2022-10-31T14:27:42;3.80;;;1.73;;
21661;SDS011;10992;48.170;8.596;2022-10-31T14:29:46;5.38;;;1.88;;
21661;SDS011;10992;48.170;8.596;2022-10-31T14:34:51;14.52;;;7.57;;
21661;SDS011;10992;48.170;8.596;2022-10-31T14:51:20;6.80;;;2.58;;
21661;SDS011;10992;48.170;8.596;2022-10-31T14:53:50;7.78;;;2.53;;
21661;SDS011;10992;48.170;8.596;2022-10-31T14:56:24;7.07;;;2.97;;
21661;SDS011;10992;48.170;8.596;2022-10-31T14:58:55;8.85;;;2.50;;
21661;SDS011;10992;48.170;8.596;2022-10-31T15:01:27;6.63;;;2.40;;
21661;SDS011;10992;48.170;8.596;2022-10-31T15:04:05;6.88;;;2.47;;
21661;SDS011;10992;48.170;8.596;2022-10-31T15:07:00;9.35;;;2.70;;
21661;SDS011;10992;48.170;8.596;2022-10-31T15:09:34;8.27;;;2.60;;
21661;SDS011;10992;48.170;8.596;2022-10-31T15:12:21;5.28;;;2.42;;
21661;SDS011;10992;48.170;8.596;2022-10-31T15:14:50;6.07;;;2.45;;
21661;SDS011;10992;48.170;8.596;2022-10-31T15:17:19;6.57;;;2.60;;
21661;SDS011;10992;48.170;8.596;2022-10-31T15:19:47;10.73;;;4.57;;
21661;SDS011;10992;48.170;8.596;2022-10-31T15:22:14;11.10;;;6.07;;
21661;SDS011;10992;48.170;8.596;2022-10-31T15:24:43;12.77;;;6.13;;
21661;SDS011;10992;48.170;8.596;2022-10-31T15:27:15;12.27;;;8.40;;
21661;SDS011;10992;48.170;8.596;2022-10-31T15:29:47;8.30;;;3.47;;
21661;SDS011;10992;48.170;8.596;2022-10-31T15:34:50;12.40;;;6.32;;
21661;SDS011;10992;48.170;8.596;2022-10-31T15:37:19;9.10;;;3.92;;
21661;SDS011;10992;48.170;8.596;2022-10-31T15:39:48;5.80;;;3.83;;
21661;SDS011;10992;48.170;8.596;2022-10-31T15:44:47;9.73;;;4.10;;
21661;SDS011;10992;48.170;8.596;2022-10-31T15:47:20;7.10;;;3.50;;
21661;SDS011;10992;48.170;8.596;2022-10-31T15:49:54;6.47;;;3.65;;
21661;SDS011;10992;48.170;8.596;2022-10-31T15:52:40;8.55;;;3.28;;
21661;SDS011;10992;48.170;8.596;2022-10-31T15:57:42;8.00;;;3.42;;
21661;SDS011;10992;48.170;8.596;2022-10-31T16:00:22;7.43;;;3.95;;
21661;SDS011;10992;48.170;8.596;2022-10-31T16:02:50;8.43;;;4.00;;
21661;SDS011;10992;48.170;8.596;2022-10-31T16:05:34;8.80;;;3.75;;
21661;SDS011;10992;48.170;8.596;2022-10-31T16:08:21;8.48;;;3.47;;
21661;SDS011;10992;48.170;8.596;2022-10-31T16:10:57;9.07;;;3.55;;
21661;SDS011;10992;48.170;8.596;2022-10-31T16:13:26;8.90;;;4.28;;
21661;SDS011;10992;48.170;8.596;2022-10-31T16:15:56;9.88;;;4.10;;
21661;SDS011;10992;48.170;8.596;2022-10-31T16:18:46;9.60;;;4.72;;
21661;SDS011;10992;48.170;8.596;2022-10-31T16:21:14;14.05;;;6.35;;
21661;SDS011;10992;48.170;8.596;2022-10-31T16:23:44;26.48;;;14.52;;
21661;SDS011;10992;48.170;8.596;2022-10-31T16:26:15;22.13;;;14.25;;
21661;SDS011;10992;48.170;8.596;2022-10-31T16:28:51;22.42;;;15.55;;
21661;SDS011;10992;48.170;8.596;2022-10-31T16:31:36;35.00;;;18.75;;
21661;SDS011;10992;48.170;8.596;2022-10-31T16:34:05;27.60;;;14.20;;
21661;SDS011;10992;48.170;8.596;2022-10-31T16:36:36;17.92;;;9.10;;
21661;SDS011;10992;48.170;8.596;2022-10-31T16:39:05;18.45;;;9.63;;
21661;SDS011;10992;48.170;8.596;2022-10-31T16:41:36;25.45;;;12.60;;
21661;SDS011;10992;48.170;8.596;2022-10-31T16:44:11;32.38;;;17.20;;
21661;SDS011;10992;48.170;8.596;2022-10-31T16:46:41;27.60;;;15.65;;
21661;SDS011;10992;48.170;8.596;2022-10-31T16:49:09;28.05;;;16.33;;
21661;SDS011;10992;48.170;8.596;2022-10-31T16:51:36;26.48;;;15.27;;
21661;SDS011;10992;48.170;8.596;2022-10-31T16:54:03;23.33;;;14.55;;
21661;SDS011;10992;48.170;8.596;2022-10-31T16:56:30;21.00;;;12.10;;
21661;SDS011;10992;48.170;8.596;2022-10-31T16:59:00;17.67;;;10.40;;
21661;SDS011;10992;48.170;8.596;2022-10-31T17:01:30;19.60;;;9.25;;
21661;SDS011;10992;48.170;8.596;2022-10-31T17:03:57;21.52;;;9.25;;
21661;SDS011;10992;48.170;8.596;2022-10-31T17:06:25;13.02;;;7.82;;
21661;SDS011;10992;48.170;8.596;2022-10-31T17:08:53;14.13;;;7.03;;
21661;SDS011;10992;48.170;8.596;2022-10-31T17:11:21;10.80;;;6.57;;
21661;SDS011;10992;48.170;8.596;2022-10-31T17:13:51;11.77;;;7.13;;
21661;SDS011;10992;48.170;8.596;2022-10-31T17:16:19;15.60;;;8.55;;
21661;SDS011;10992;48.170;8.596;2022-10-31T17:18:46;13.95;;;9.57;;
21661;SDS011;10992;48.170;8.596;2022-10-31T17:21:20;28.17;;;20.13;;
21661;SDS011;10992;48.170;8.596;2022-10-31T17:23:49;18.42;;;10.30;;
21661;SDS011;10992;48.170;8.596;2022-10-31T17:26:16;15.23;;;9.32;;
21661;SDS011;10992;48.170;8.596;2022-10-31T17:28:44;33.17;;;18.92;;
21661;SDS011;10992;48.170;8.596;2022-10-31T17:31:21;26.88;;;19.70;;
21661;SDS011;10992;48.170;8.596;2022-10-31T17:33:53;25.83;;;14.55;;
21661;SDS011;10992;48.170;8.596;2022-10-31T17:36:28;22.60;;;12.68;;
21661;SDS011;10992;48.170;8.596;2022-10-31T17:38:56;18.58;;;12.10;;
21661;SDS011;10992;48.170;8.596;2022-10-31T17:41:23;17.35;;;11.98;;
21661;SDS011;10992;48.170;8.596;2022-10-31T17:43:56;17.10;;;10.80;;
21661;SDS011;10992;48.170;8.596;2022-10-31T17:46:24;16.48;;;9.93;;
21661;SDS011;10992;48.170;8.596;2022-10-31T17:48:52;21.73;;;12.60;;